Aeroporto :







RITROVATECI SU...

 
LOGIN :

Iscrizione | Disclaimer

   EN    FR    IT 

 









Sommario :    VFR   VFR Marginale   IFR   IFR Intensivo   IFR Molto Intensivo
Visibilità : 
Base nubi : 
>= 8 km
>= 3000ft
5 / 8 km
1000 / 3000 ft
1500m / 5 km
500 / 1000 ft
800 / 1500m
200 / 500 ft
< 800m
< 200 ft
Simboli :   Temporali  Nebbia  Neve Forte  Precipitazioni Forti  Vento > 20 kt






- Altitudine del aeroporto : 283 ft
- Codice IATA : GOH


BGGH - Nuuk

ULTIMO METAR :
  • 171250Z 07015KT 9999 FEW180 M11/M16 Q0992

METARs OBSOLETI :
  • 171150Z 08016KT 9999 FEW200 M11/M16 Q0992
  • 171050Z 08016KT 9999 FEW120 M11/M16 Q0992

TAF TAF BGGH
Valido dal 17 a 12 ore il 17 a 21 ore UTC


171126Z 1712/1721 08015KT 9999 FEW120
TEMPO 1716/1721 BKN022



MetMap, La meteo Aeronautica in un colpo d'occhio ! - Copyright ORBIFLY Dicembre 2007 - Disclaimer

ORBIFLY MET'MAP TEAM :

Programmazione e sviluppo : Alexandra Zaïnal
Concezione : Baudouin d'Aumeries
Aiuto per la programmazione : Marc-Olivier Méhu
Supporto tecnico e logistico : Manuel Goepfert
Aiuto per la traduzione : Arnaldo La Scala

Contatto : metmap@orbifly.com




FONTI E CREDITI :

   NOAA